sensor_id;sensor_type;location;lat;lon;timestamp;pressure;altitude;pressure_sealevel;temperature;humidity
4705;BME280;2366;51.332;6.610;2023-05-25T00:00:07;102316.53;;;14.44;63.12
4705;BME280;2366;51.332;6.610;2023-05-25T00:02:34;102315.84;;;14.40;63.25
4705;BME280;2366;51.332;6.610;2023-05-25T00:04:59;102319.44;;;14.39;63.36
4705;BME280;2366;51.332;6.610;2023-05-25T00:07:25;102317.63;;;14.39;63.60
4705;BME280;2366;51.332;6.610;2023-05-25T00:09:50;102317.03;;;14.34;63.57
4705;BME280;2366;51.332;6.610;2023-05-25T00:12:16;102316.41;;;14.29;63.81
4705;BME280;2366;51.332;6.610;2023-05-25T00:14:41;102314.97;;;14.22;64.16
4705;BME280;2366;51.332;6.610;2023-05-25T00:17:06;102310.72;;;14.18;64.21
4705;BME280;2366;51.332;6.610;2023-05-25T00:19:35;102317.09;;;14.15;64.30
4705;BME280;2366;51.332;6.610;2023-05-25T00:22:00;102314.53;;;14.14;64.56
4705;BME280;2366;51.332;6.610;2023-05-25T00:24:29;102313.75;;;14.12;64.59
4705;BME280;2366;51.332;6.610;2023-05-25T00:26:56;102309.41;;;14.09;64.56
4705;BME280;2366;51.332;6.610;2023-05-25T00:29:21;102309.50;;;14.08;64.62
4705;BME280;2366;51.332;6.610;2023-05-25T00:31:47;102303.44;;;14.04;64.96
4705;BME280;2366;51.332;6.610;2023-05-25T00:34:14;102296.41;;;14.03;65.14
4705;BME280;2366;51.332;6.610;2023-05-25T00:36:39;102313.56;;;13.97;65.22
4705;BME280;2366;51.332;6.610;2023-05-25T00:39:07;102312.94;;;13.92;65.55
4705;BME280;2366;51.332;6.610;2023-05-25T00:41:35;102314.97;;;13.87;65.94
4705;BME280;2366;51.332;6.610;2023-05-25T00:44:06;102308.06;;;13.83;66.09
4705;BME280;2366;51.332;6.610;2023-05-25T00:46:33;102310.16;;;13.76;66.03
4705;BME280;2366;51.332;6.610;2023-05-25T00:48:58;102312.22;;;13.71;66.45
4705;BME280;2366;51.332;6.610;2023-05-25T00:51:25;102312.28;;;13.70;66.51
4705;BME280;2366;51.332;6.610;2023-05-25T00:53:51;102307.25;;;13.64;66.61
4705;BME280;2366;51.332;6.610;2023-05-25T00:56:29;102315.34;;;13.62;66.82
4705;BME280;2366;51.332;6.610;2023-05-25T00:58:56;102310.91;;;13.61;66.79
4705;BME280;2366;51.332;6.610;2023-05-25T01:01:26;102313.53;;;13.63;67.07
4705;BME280;2366;51.332;6.610;2023-05-25T01:03:52;102321.28;;;13.67;66.83
4705;BME280;2366;51.332;6.610;2023-05-25T01:06:21;102316.97;;;13.65;66.79
4705;BME280;2366;51.332;6.610;2023-05-25T01:08:56;102318.84;;;13.63;66.79
4705;BME280;2366;51.332;6.610;2023-05-25T01:11:27;102318.22;;;13.58;67.11
4705;BME280;2366;51.332;6.610;2023-05-25T01:13:57;102324.53;;;13.55;67.26
4705;BME280;2366;51.332;6.610;2023-05-25T01:16:24;102326.50;;;13.51;67.28
4705;BME280;2366;51.332;6.610;2023-05-25T01:18:52;102321.31;;;13.48;67.59
4705;BME280;2366;51.332;6.610;2023-05-25T01:21:34;102318.88;;;13.44;67.23
4705;BME280;2366;51.332;6.610;2023-05-25T01:24:14;102329.69;;;13.41;67.24
4705;BME280;2366;51.332;6.610;2023-05-25T01:26:53;102334.44;;;13.34;67.64
4705;BME280;2366;51.332;6.610;2023-05-25T01:29:20;102334.56;;;13.31;67.45
4705;BME280;2366;51.332;6.610;2023-05-25T01:31:46;102323.25;;;13.26;67.66
4705;BME280;2366;51.332;6.610;2023-05-25T01:34:12;102328.81;;;13.21;67.89
4705;BME280;2366;51.332;6.610;2023-05-25T01:36:38;102337.00;;;13.17;68.25
4705;BME280;2366;51.332;6.610;2023-05-25T01:39:04;102330.00;;;13.14;68.23
4705;BME280;2366;51.332;6.610;2023-05-25T01:41:30;102325.84;;;13.08;68.01
4705;BME280;2366;51.332;6.610;2023-05-25T01:43:55;102326.06;;;13.04;68.28
4705;BME280;2366;51.332;6.610;2023-05-25T01:46:42;102329.75;;;13.01;68.54
4705;BME280;2366;51.332;6.610;2023-05-25T01:49:28;102330.50;;;13.03;68.86
4705;BME280;2366;51.332;6.610;2023-05-25T01:54:44;102342.25;;;12.99;68.54
4705;BME280;2366;51.332;6.610;2023-05-25T01:57:13;102338.81;;;12.97;68.80
4705;BME280;2366;51.332;6.610;2023-05-25T01:59:41;102342.66;;;12.90;68.75
4705;BME280;2366;51.332;6.610;2023-05-25T02:02:08;102339.28;;;12.86;69.02
4705;BME280;2366;51.332;6.610;2023-05-25T02:04:34;102338.41;;;12.86;69.42
4705;BME280;2366;51.332;6.610;2023-05-25T02:07:02;102337.63;;;12.84;69.31
4705;BME280;2366;51.332;6.610;2023-05-25T02:09:28;102341.47;;;12.77;69.33
4705;BME280;2366;51.332;6.610;2023-05-25T02:11:53;102347.88;;;12.72;69.24
4705;BME280;2366;51.332;6.610;2023-05-25T02:14:18;102351.59;;;12.68;69.28
4705;BME280;2366;51.332;6.610;2023-05-25T02:16:44;102352.69;;;12.64;69.86
4705;BME280;2366;51.332;6.610;2023-05-25T02:19:12;102347.44;;;12.63;69.82
4705;BME280;2366;51.332;6.610;2023-05-25T02:21:41;102351.81;;;12.64;69.52
4705;BME280;2366;51.332;6.610;2023-05-25T02:24:06;102344.97;;;12.58;69.86
4705;BME280;2366;51.332;6.610;2023-05-25T02:26:34;102344.03;;;12.59;69.64
4705;BME280;2366;51.332;6.610;2023-05-25T02:29:01;102335.19;;;12.59;69.82
4705;BME280;2366;51.332;6.610;2023-05-25T02:31:27;102337.78;;;12.60;70.09
4705;BME280;2366;51.332;6.610;2023-05-25T02:33:52;102352.00;;;12.59;69.83
4705;BME280;2366;51.332;6.610;2023-05-25T02:36:18;102344.19;;;12.56;69.91
4705;BME280;2366;51.332;6.610;2023-05-25T02:38:43;102346.03;;;12.54;69.92
4705;BME280;2366;51.332;6.610;2023-05-25T02:41:10;102342.44;;;12.55;70.47
4705;BME280;2366;51.332;6.610;2023-05-25T02:43:35;102343.38;;;12.54;70.25
4705;BME280;2366;51.332;6.610;2023-05-25T02:46:01;102348.69;;;12.54;70.37
4705;BME280;2366;51.332;6.610;2023-05-25T02:48:26;102341.53;;;12.56;70.61
4705;BME280;2366;51.332;6.610;2023-05-25T02:50:52;102351.41;;;12.52;70.23
4705;BME280;2366;51.332;6.610;2023-05-25T02:53:17;102350.63;;;12.50;70.26
4705;BME280;2366;51.332;6.610;2023-05-25T02:55:43;102352.53;;;12.47;70.23
4705;BME280;2366;51.332;6.610;2023-05-25T02:58:08;102343.66;;;12.48;70.56
4705;BME280;2366;51.332;6.610;2023-05-25T03:00:34;102353.28;;;12.50;70.48
4705;BME280;2366;51.332;6.610;2023-05-25T03:02:59;102349.81;;;12.48;70.44
4705;BME280;2366;51.332;6.610;2023-05-25T03:05:24;102357.00;;;12.46;70.16
4705;BME280;2366;51.332;6.610;2023-05-25T03:07:50;102356.09;;;12.47;70.40
4705;BME280;2366;51.332;6.610;2023-05-25T03:10:15;102356.00;;;12.49;70.56
4705;BME280;2366;51.332;6.610;2023-05-25T03:12:41;102350.69;;;12.49;70.24
4705;BME280;2366;51.332;6.610;2023-05-25T03:15:06;102352.53;;;12.47;70.30
4705;BME280;2366;51.332;6.610;2023-05-25T03:17:33;102356.88;;;12.49;70.45
4705;BME280;2366;51.332;6.610;2023-05-25T03:19:58;102352.53;;;12.47;70.37
4705;BME280;2366;51.332;6.610;2023-05-25T03:22:24;102354.53;;;12.42;70.26
4705;BME280;2366;51.332;6.610;2023-05-25T03:24:49;102358.25;;;12.38;70.70
4705;BME280;2366;51.332;6.610;2023-05-25T03:27:15;102365.44;;;12.36;70.97
4705;BME280;2366;51.332;6.610;2023-05-25T03:29:40;102365.34;;;12.39;70.60
4705;BME280;2366;51.332;6.610;2023-05-25T03:32:06;102377.75;;;12.38;71.08
4705;BME280;2366;51.332;6.610;2023-05-25T03:34:31;102372.63;;;12.33;70.52
4705;BME280;2366;51.332;6.610;2023-05-25T03:36:59;102379.69;;;12.35;70.76
4705;BME280;2366;51.332;6.610;2023-05-25T03:39:24;102370.75;;;12.36;71.00
4705;BME280;2366;51.332;6.610;2023-05-25T03:41:50;102386.63;;;12.39;71.02
4705;BME280;2366;51.332;6.610;2023-05-25T03:44:15;102387.47;;;12.39;71.18
4705;BME280;2366;51.332;6.610;2023-05-25T03:46:40;102394.44;;;12.42;71.46
4705;BME280;2366;51.332;6.610;2023-05-25T03:49:06;102389.78;;;12.47;71.41
4705;BME280;2366;51.332;6.610;2023-05-25T03:51:31;102397.72;;;12.48;70.78
4705;BME280;2366;51.332;6.610;2023-05-25T03:53:57;102391.28;;;12.54;70.72
4705;BME280;2366;51.332;6.610;2023-05-25T03:56:22;102391.22;;;12.56;70.82
4705;BME280;2366;51.332;6.610;2023-05-25T03:58:48;102396.94;;;12.67;71.20
4705;BME280;2366;51.332;6.610;2023-05-25T04:01:13;102394.06;;;12.71;70.68
4705;BME280;2366;51.332;6.610;2023-05-25T04:03:39;102402.81;;;12.94;70.34
4705;BME280;2366;51.332;6.610;2023-05-25T04:06:04;102412.41;;;13.38;70.54
4705;BME280;2366;51.332;6.610;2023-05-25T04:08:30;102415.25;;;13.90;69.87
4705;BME280;2366;51.332;6.610;2023-05-25T04:10:55;102415.56;;;14.37;67.71
4705;BME280;2366;51.332;6.610;2023-05-25T04:13:21;102414.34;;;14.79;66.14
4705;BME280;2366;51.332;6.610;2023-05-25T04:15:48;102421.84;;;15.06;64.07
4705;BME280;2366;51.332;6.610;2023-05-25T04:18:13;102419.84;;;15.43;63.29
4705;BME280;2366;51.332;6.610;2023-05-25T04:20:38;102416.88;;;15.81;61.96
4705;BME280;2366;51.332;6.610;2023-05-25T04:23:04;102417.16;;;16.07;60.10
4705;BME280;2366;51.332;6.610;2023-05-25T04:25:30;102408.22;;;16.38;59.18
4705;BME280;2366;51.332;6.610;2023-05-25T04:27:56;102414.94;;;16.45;57.17
4705;BME280;2366;51.332;6.610;2023-05-25T04:30:21;102408.97;;;16.70;57.18
4705;BME280;2366;51.332;6.610;2023-05-25T04:32:47;102413.63;;;17.25;56.39
4705;BME280;2366;51.332;6.610;2023-05-25T04:35:12;102417.00;;;17.85;55.00
4705;BME280;2366;51.332;6.610;2023-05-25T04:37:45;102417.03;;;18.25;53.78
4705;BME280;2366;51.332;6.610;2023-05-25T04:40:11;102429.38;;;18.67;52.02
4705;BME280;2366;51.332;6.610;2023-05-25T04:42:38;102412.22;;;19.08;50.60
4705;BME280;2366;51.332;6.610;2023-05-25T04:45:06;102418.06;;;19.52;49.30
4705;BME280;2366;51.332;6.610;2023-05-25T04:47:33;102422.56;;;19.88;47.95
4705;BME280;2366;51.332;6.610;2023-05-25T04:49:58;102422.41;;;20.27;47.36
4705;BME280;2366;51.332;6.610;2023-05-25T04:52:24;102418.75;;;20.63;46.59
4705;BME280;2366;51.332;6.610;2023-05-25T04:54:49;102429.19;;;20.79;46.18
4705;BME280;2366;51.332;6.610;2023-05-25T04:57:15;102432.25;;;20.86;45.30
4705;BME280;2366;51.332;6.610;2023-05-25T04:59:40;102441.25;;;21.09;44.41
4705;BME280;2366;51.332;6.610;2023-05-25T05:02:06;102448.13;;;21.13;44.60
4705;BME280;2366;51.332;6.610;2023-05-25T05:04:32;102447.38;;;21.33;45.79
4705;BME280;2366;51.332;6.610;2023-05-25T05:06:58;102451.75;;;21.91;43.76
4705;BME280;2366;51.332;6.610;2023-05-25T05:09:23;102457.03;;;21.92;42.41
4705;BME280;2366;51.332;6.610;2023-05-25T05:11:49;102459.09;;;22.00;40.66
4705;BME280;2366;51.332;6.610;2023-05-25T05:14:14;102463.84;;;21.64;42.98
4705;BME280;2366;51.332;6.610;2023-05-25T05:16:41;102457.94;;;21.82;40.61
4705;BME280;2366;51.332;6.610;2023-05-25T05:19:06;102462.88;;;22.09;42.29
4705;BME280;2366;51.332;6.610;2023-05-25T05:21:31;102473.44;;;22.44;41.45
4705;BME280;2366;51.332;6.610;2023-05-25T05:23:57;102467.41;;;22.73;41.16
4705;BME280;2366;51.332;6.610;2023-05-25T05:26:23;102470.03;;;22.84;39.96
4705;BME280;2366;51.332;6.610;2023-05-25T05:28:48;102466.72;;;22.60;41.18
4705;BME280;2366;51.332;6.610;2023-05-25T05:31:13;102471.13;;;23.14;40.79
4705;BME280;2366;51.332;6.610;2023-05-25T05:33:41;102479.94;;;23.47;40.44
4705;BME280;2366;51.332;6.610;2023-05-25T05:36:07;102484.53;;;24.06;39.03
4705;BME280;2366;51.332;6.610;2023-05-25T05:38:33;102486.44;;;24.54;37.63
4705;BME280;2366;51.332;6.610;2023-05-25T05:40:58;102486.88;;;24.59;36.66
4705;BME280;2366;51.332;6.610;2023-05-25T05:43:23;102488.66;;;24.01;37.33
4705;BME280;2366;51.332;6.610;2023-05-25T05:45:49;102489.84;;;24.37;38.30
4705;BME280;2366;51.332;6.610;2023-05-25T05:48:14;102482.53;;;24.96;36.84
4705;BME280;2366;51.332;6.610;2023-05-25T05:50:40;102480.22;;;25.20;35.93
4705;BME280;2366;51.332;6.610;2023-05-25T05:53:05;102484.72;;;25.39;35.94
4705;BME280;2366;51.332;6.610;2023-05-25T05:55:32;102483.94;;;25.57;34.91
4705;BME280;2366;51.332;6.610;2023-05-25T05:57:57;102494.47;;;25.88;35.49
4705;BME280;2366;51.332;6.610;2023-05-25T06:00:23;102480.91;;;25.60;34.63
4705;BME280;2366;51.332;6.610;2023-05-25T06:02:49;102486.44;;;25.96;34.60
4705;BME280;2366;51.332;6.610;2023-05-25T06:05:15;102490.50;;;26.28;34.46
4705;BME280;2366;51.332;6.610;2023-05-25T06:07:40;102490.19;;;26.49;33.84
4705;BME280;2366;51.332;6.610;2023-05-25T06:10:06;102484.66;;;26.76;33.00
4705;BME280;2366;51.332;6.610;2023-05-25T06:12:32;102490.59;;;26.98;32.37
4705;BME280;2366;51.332;6.610;2023-05-25T06:14:57;102492.72;;;26.86;31.73
4705;BME280;2366;51.332;6.610;2023-05-25T06:17:23;102494.88;;;26.82;32.50
4705;BME280;2366;51.332;6.610;2023-05-25T06:19:49;102492.19;;;26.64;32.33
4705;BME280;2366;51.332;6.610;2023-05-25T06:22:15;102501.38;;;26.63;32.61
4705;BME280;2366;51.332;6.610;2023-05-25T06:24:40;102492.78;;;26.94;31.65
4705;BME280;2366;51.332;6.610;2023-05-25T06:27:06;102505.81;;;27.35;31.24
4705;BME280;2366;51.332;6.610;2023-05-25T06:29:31;102508.63;;;26.99;31.89
4705;BME280;2366;51.332;6.610;2023-05-25T06:31:57;102504.84;;;27.18;31.38
4705;BME280;2366;51.332;6.610;2023-05-25T06:34:22;102506.84;;;26.90;31.72
4705;BME280;2366;51.332;6.610;2023-05-25T06:36:47;102503.34;;;27.23;31.78
4705;BME280;2366;51.332;6.610;2023-05-25T06:39:13;102499.03;;;27.81;30.25
4705;BME280;2366;51.332;6.610;2023-05-25T06:41:39;102505.69;;;27.44;30.34
4705;BME280;2366;51.332;6.610;2023-05-25T06:44:05;102510.38;;;27.34;31.27
4705;BME280;2366;51.332;6.610;2023-05-25T06:46:31;102509.72;;;28.17;30.59
4705;BME280;2366;51.332;6.610;2023-05-25T06:48:58;102525.56;;;28.22;29.54
4705;BME280;2366;51.332;6.610;2023-05-25T06:51:24;102517.50;;;27.61;30.48
4705;BME280;2366;51.332;6.610;2023-05-25T06:53:54;102523.47;;;27.65;30.78
4705;BME280;2366;51.332;6.610;2023-05-25T06:56:20;102521.53;;;28.51;29.41
4705;BME280;2366;51.332;6.610;2023-05-25T06:58:47;102517.59;;;28.53;29.18
4705;BME280;2366;51.332;6.610;2023-05-25T07:01:12;102521.34;;;29.18;28.96
4705;BME280;2366;51.332;6.610;2023-05-25T07:03:38;102524.25;;;29.56;28.36
4705;BME280;2366;51.332;6.610;2023-05-25T07:06:04;102519.25;;;29.03;27.84
4705;BME280;2366;51.332;6.610;2023-05-25T07:08:30;102516.94;;;28.67;28.64
4705;BME280;2366;51.332;6.610;2023-05-25T07:10:55;102522.88;;;28.96;28.37
4705;BME280;2366;51.332;6.610;2023-05-25T07:13:20;102516.94;;;28.67;28.61
4705;BME280;2366;51.332;6.610;2023-05-25T07:15:46;102516.91;;;29.00;28.90
4705;BME280;2366;51.332;6.610;2023-05-25T07:18:11;102518.53;;;29.34;28.08
4705;BME280;2366;51.332;6.610;2023-05-25T07:20:41;102522.59;;;29.55;27.66
4705;BME280;2366;51.332;6.610;2023-05-25T07:23:10;102528.56;;;29.58;27.70
4705;BME280;2366;51.332;6.610;2023-05-25T07:25:39;102525.69;;;29.52;27.46
4705;BME280;2366;51.332;6.610;2023-05-25T07:28:07;102521.38;;;29.97;28.13
4705;BME280;2366;51.332;6.610;2023-05-25T07:30:33;102528.09;;;30.17;26.99
4705;BME280;2366;51.332;6.610;2023-05-25T07:32:59;102533.09;;;30.60;26.75
4705;BME280;2366;51.332;6.610;2023-05-25T07:35:25;102528.28;;;30.62;26.54
4705;BME280;2366;51.332;6.610;2023-05-25T07:37:57;102534.84;;;30.76;26.62
4705;BME280;2366;51.332;6.610;2023-05-25T07:40:23;102537.38;;;30.39;26.92
4705;BME280;2366;51.332;6.610;2023-05-25T07:42:48;102532.19;;;30.44;26.68
4705;BME280;2366;51.332;6.610;2023-05-25T07:45:14;102529.59;;;29.49;28.22
4705;BME280;2366;51.332;6.610;2023-05-25T07:47:40;102529.03;;;30.33;27.05
4705;BME280;2366;51.332;6.610;2023-05-25T07:50:06;102528.41;;;30.68;25.67
4705;BME280;2366;51.332;6.610;2023-05-25T07:52:31;102537.88;;;30.81;25.90
4705;BME280;2366;51.332;6.610;2023-05-25T07:54:56;102540.50;;;30.36;26.07
4705;BME280;2366;51.332;6.610;2023-05-25T07:57:22;102535.41;;;29.94;27.06
4705;BME280;2366;51.332;6.610;2023-05-25T07:59:47;102528.59;;;27.34;29.58
4705;BME280;2366;51.332;6.610;2023-05-25T08:02:12;102539.28;;;27.96;29.92
4705;BME280;2366;51.332;6.610;2023-05-25T08:04:38;102541.38;;;28.02;28.94
4705;BME280;2366;51.332;6.610;2023-05-25T08:07:03;102545.56;;;28.80;28.15
4705;BME280;2366;51.332;6.610;2023-05-25T08:09:28;102541.59;;;26.78;30.21
4705;BME280;2366;51.332;6.610;2023-05-25T08:11:54;102546.66;;;27.17;30.83
4705;BME280;2366;51.332;6.610;2023-05-25T08:14:19;102545.59;;;29.13;28.38
4705;BME280;2366;51.332;6.610;2023-05-25T08:16:45;102547.91;;;30.19;26.78
4705;BME280;2366;51.332;6.610;2023-05-25T08:19:10;102541.78;;;27.47;30.27
4705;BME280;2366;51.332;6.610;2023-05-25T08:21:35;102542.09;;;28.45;28.95
4705;BME280;2366;51.332;6.610;2023-05-25T08:24:01;102547.75;;;29.01;27.76
4705;BME280;2366;51.332;6.610;2023-05-25T08:26:30;102539.69;;;29.88;26.60
4705;BME280;2366;51.332;6.610;2023-05-25T08:28:56;102540.19;;;29.52;26.86
4705;BME280;2366;51.332;6.610;2023-05-25T08:31:21;102544.75;;;27.09;30.22
4705;BME280;2366;51.332;6.610;2023-05-25T08:33:46;102541.47;;;29.08;27.95
4705;BME280;2366;51.332;6.610;2023-05-25T08:36:12;102544.75;;;30.77;27.55
4705;BME280;2366;51.332;6.610;2023-05-25T08:38:37;102547.09;;;30.42;25.95
4705;BME280;2366;51.332;6.610;2023-05-25T08:41:04;102542.25;;;29.89;27.06
4705;BME280;2366;51.332;6.610;2023-05-25T08:43:31;102546.09;;;29.72;26.85
4705;BME280;2366;51.332;6.610;2023-05-25T08:46:04;102550.50;;;30.44;26.33
4705;BME280;2366;51.332;6.610;2023-05-25T08:48:32;102549.88;;;30.80;25.51
4705;BME280;2366;51.332;6.610;2023-05-25T08:51:00;102556.97;;;31.42;25.23
4705;BME280;2366;51.332;6.610;2023-05-25T08:53:29;102551.03;;;31.98;25.99
4705;BME280;2366;51.332;6.610;2023-05-25T08:55:59;102549.00;;;33.90;23.66
4705;BME280;2366;51.332;6.610;2023-05-25T08:58:33;102547.03;;;34.46;22.21
4705;BME280;2366;51.332;6.610;2023-05-25T09:01:07;102549.63;;;32.23;24.71
4705;BME280;2366;51.332;6.610;2023-05-25T09:03:32;102547.63;;;31.66;25.44
4705;BME280;2366;51.332;6.610;2023-05-25T09:05:59;102543.59;;;29.46;27.27
4705;BME280;2366;51.332;6.610;2023-05-25T09:08:25;102537.25;;;28.06;29.33
4705;BME280;2366;51.332;6.610;2023-05-25T09:10:51;102534.53;;;27.29;30.53
4705;BME280;2366;51.332;6.610;2023-05-25T09:13:18;102541.09;;;25.83;32.41
4705;BME280;2366;51.332;6.610;2023-05-25T09:15:43;102545.47;;;27.37;30.26
4705;BME280;2366;51.332;6.610;2023-05-25T09:18:09;102547.13;;;29.71;27.83
4705;BME280;2366;51.332;6.610;2023-05-25T09:20:34;102541.22;;;30.30;26.82
4705;BME280;2366;51.332;6.610;2023-05-25T09:23:00;102548.47;;;27.08;30.17
4705;BME280;2366;51.332;6.610;2023-05-25T09:25:28;102547.81;;;24.75;33.24
4705;BME280;2366;51.332;6.610;2023-05-25T09:27:56;102540.44;;;24.07;35.39
4705;BME280;2366;51.332;6.610;2023-05-25T09:30:25;102542.25;;;23.97;36.37
4705;BME280;2366;51.332;6.610;2023-05-25T09:32:52;102551.97;;;26.11;32.98
4705;BME280;2366;51.332;6.610;2023-05-25T09:35:17;102555.09;;;27.58;30.82
4705;BME280;2366;51.332;6.610;2023-05-25T09:37:43;102550.34;;;27.08;31.20
4705;BME280;2366;51.332;6.610;2023-05-25T09:40:09;102542.31;;;28.52;30.18
4705;BME280;2366;51.332;6.610;2023-05-25T09:42:37;102552.91;;;28.87;28.64
4705;BME280;2366;51.332;6.610;2023-05-25T09:45:04;102551.13;;;27.78;29.96
4705;BME280;2366;51.332;6.610;2023-05-25T09:47:30;102545.78;;;25.91;32.72
4705;BME280;2366;51.332;6.610;2023-05-25T09:49:55;102554.78;;;24.58;34.75
4705;BME280;2366;51.332;6.610;2023-05-25T09:52:22;102554.28;;;23.43;36.24
4705;BME280;2366;51.332;6.610;2023-05-25T09:54:50;102555.66;;;23.16;37.15
4705;BME280;2366;51.332;6.610;2023-05-25T09:57:18;102555.50;;;23.60;36.05
4705;BME280;2366;51.332;6.610;2023-05-25T09:59:44;102563.44;;;22.88;37.62
4705;BME280;2366;51.332;6.610;2023-05-25T10:02:11;102562.03;;;22.94;38.22
4705;BME280;2366;51.332;6.610;2023-05-25T10:04:37;102568.75;;;22.79;37.77
4705;BME280;2366;51.332;6.610;2023-05-25T10:07:03;102565.13;;;22.89;37.89
4705;BME280;2366;51.332;6.610;2023-05-25T10:09:29;102564.91;;;22.60;38.52
4705;BME280;2366;51.332;6.610;2023-05-25T10:11:59;102564.63;;;22.63;38.73
4705;BME280;2366;51.332;6.610;2023-05-25T10:14:27;102572.06;;;22.82;38.66
4705;BME280;2366;51.332;6.610;2023-05-25T10:16:54;102571.63;;;22.22;39.84
4705;BME280;2366;51.332;6.610;2023-05-25T10:19:25;102573.69;;;22.07;39.48
4705;BME280;2366;51.332;6.610;2023-05-25T10:22:15;102575.06;;;23.21;37.90
4705;BME280;2366;51.332;6.610;2023-05-25T10:24:56;102575.06;;;23.21;37.33
4705;BME280;2366;51.332;6.610;2023-05-25T10:27:26;102588.06;;;23.06;38.75
4705;BME280;2366;51.332;6.610;2023-05-25T10:29:55;102572.50;;;22.00;40.08
4705;BME280;2366;51.332;6.610;2023-05-25T10:32:21;102586.38;;;22.29;39.74
4705;BME280;2366;51.332;6.610;2023-05-25T10:34:47;102582.31;;;22.12;39.43
4705;BME280;2366;51.332;6.610;2023-05-25T10:37:15;102587.69;;;22.35;39.78
4705;BME280;2366;51.332;6.610;2023-05-25T10:39:42;102585.97;;;22.77;38.44
4705;BME280;2366;51.332;6.610;2023-05-25T10:42:08;102593.22;;;22.45;38.49
4705;BME280;2366;51.332;6.610;2023-05-25T10:44:33;102606.75;;;22.66;38.43
4705;BME280;2366;51.332;6.610;2023-05-25T10:46:59;102601.63;;;22.63;38.33
4705;BME280;2366;51.332;6.610;2023-05-25T10:49:30;102599.69;;;22.42;38.98
4705;BME280;2366;51.332;6.610;2023-05-25T10:51:57;102600.56;;;22.43;38.92
4705;BME280;2366;51.332;6.610;2023-05-25T10:54:31;102587.16;;;22.52;38.78
4705;BME280;2366;51.332;6.610;2023-05-25T10:57:21;102589.13;;;22.50;38.69
4705;BME280;2366;51.332;6.610;2023-05-25T10:59:48;102595.44;;;22.72;38.74
4705;BME280;2366;51.332;6.610;2023-05-25T11:02:15;102587.28;;;23.15;38.32
4705;BME280;2366;51.332;6.610;2023-05-25T11:04:40;102598.66;;;23.61;37.51
4705;BME280;2366;51.332;6.610;2023-05-25T11:07:07;102602.63;;;23.57;36.77
4705;BME280;2366;51.332;6.610;2023-05-25T11:09:40;102592.25;;;22.99;38.33
4705;BME280;2366;51.332;6.610;2023-05-25T11:12:08;102585.50;;;22.93;38.57
4705;BME280;2366;51.332;6.610;2023-05-25T11:14:42;102593.69;;;22.82;38.88
4705;BME280;2366;51.332;6.610;2023-05-25T11:19:45;102583.91;;;23.02;38.48
4705;BME280;2366;51.332;6.610;2023-05-25T11:22:36;102589.47;;;22.89;38.72
4705;BME280;2366;51.332;6.610;2023-05-25T11:25:34;102583.38;;;22.76;38.84
4705;BME280;2366;51.332;6.610;2023-05-25T11:28:05;102592.84;;;22.82;37.97
4705;BME280;2366;51.332;6.610;2023-05-25T11:30:31;102579.47;;;22.37;38.05
4705;BME280;2366;51.332;6.610;2023-05-25T11:33:00;102571.97;;;22.18;38.51
4705;BME280;2366;51.332;6.610;2023-05-25T11:35:26;102575.41;;;22.31;39.10
4705;BME280;2366;51.332;6.610;2023-05-25T11:37:53;102570.88;;;22.64;38.86
4705;BME280;2366;51.332;6.610;2023-05-25T11:40:22;102564.88;;;22.92;37.48
4705;BME280;2366;51.332;6.610;2023-05-25T11:42:48;102557.88;;;23.01;38.06
4705;BME280;2366;51.332;6.610;2023-05-25T11:45:14;102564.78;;;23.15;37.56
4705;BME280;2366;51.332;6.610;2023-05-25T11:47:40;102560.50;;;22.80;38.69
4705;BME280;2366;51.332;6.610;2023-05-25T11:50:06;102549.19;;;22.86;38.71
4705;BME280;2366;51.332;6.610;2023-05-25T11:52:31;102559.38;;;22.83;38.82
4705;BME280;2366;51.332;6.610;2023-05-25T11:54:57;102570.16;;;22.94;38.07
4705;BME280;2366;51.332;6.610;2023-05-25T11:57:24;102559.31;;;22.73;39.21
4705;BME280;2366;51.332;6.610;2023-05-25T11:59:55;102564.25;;;23.21;38.38
4705;BME280;2366;51.332;6.610;2023-05-25T12:02:22;102559.16;;;23.28;37.94
4705;BME280;2366;51.332;6.610;2023-05-25T12:05:03;102562.38;;;23.43;37.76
4705;BME280;2366;51.332;6.610;2023-05-25T12:07:29;102556.88;;;23.54;37.80
4705;BME280;2366;51.332;6.610;2023-05-25T12:10:12;102561.09;;;22.63;38.61
4705;BME280;2366;51.332;6.610;2023-05-25T12:15:10;102548.13;;;22.45;38.08
4705;BME280;2366;51.332;6.610;2023-05-25T12:17:40;102559.25;;;23.16;37.76
4705;BME280;2366;51.332;6.610;2023-05-25T12:20:06;102552.44;;;23.53;36.54
4705;BME280;2366;51.332;6.610;2023-05-25T12:22:32;102554.50;;;23.61;36.71
4705;BME280;2366;51.332;6.610;2023-05-25T12:24:58;102551.19;;;23.78;36.88
4705;BME280;2366;51.332;6.610;2023-05-25T12:27:24;102547.09;;;23.93;35.60
4705;BME280;2366;51.332;6.610;2023-05-25T12:29:50;102538.94;;;23.84;36.12
4705;BME280;2366;51.332;6.610;2023-05-25T12:32:17;102531.00;;;23.09;37.52
4705;BME280;2366;51.332;6.610;2023-05-25T12:34:42;102544.06;;;23.04;37.58
4705;BME280;2366;51.332;6.610;2023-05-25T12:37:26;102534.81;;;23.07;37.31
4705;BME280;2366;51.332;6.610;2023-05-25T12:39:51;102542.00;;;23.17;37.14
4705;BME280;2366;51.332;6.610;2023-05-25T12:42:17;102549.31;;;22.85;38.93
4705;BME280;2366;51.332;6.610;2023-05-25T12:44:44;102539.44;;;22.95;37.66
4705;BME280;2366;51.332;6.610;2023-05-25T12:47:14;102539.44;;;23.16;38.18
4705;BME280;2366;51.332;6.610;2023-05-25T12:49:45;102532.75;;;23.41;36.95
4705;BME280;2366;51.332;6.610;2023-05-25T12:52:30;102536.34;;;23.21;37.79
4705;BME280;2366;51.332;6.610;2023-05-25T12:54:58;102541.16;;;23.17;37.79
4705;BME280;2366;51.332;6.610;2023-05-25T12:57:33;102529.19;;;22.98;37.00
4705;BME280;2366;51.332;6.610;2023-05-25T12:59:59;102521.47;;;23.05;37.49
4705;BME280;2366;51.332;6.610;2023-05-25T13:02:24;102530.38;;;22.85;38.10
4705;BME280;2366;51.332;6.610;2023-05-25T13:04:50;102520.44;;;23.27;37.53
4705;BME280;2366;51.332;6.610;2023-05-25T13:07:15;102518.63;;;23.68;36.46
4705;BME280;2366;51.332;6.610;2023-05-25T13:09:41;102518.38;;;23.41;36.82
4705;BME280;2366;51.332;6.610;2023-05-25T13:12:08;102527.09;;;23.23;37.14
4705;BME280;2366;51.332;6.610;2023-05-25T13:14:33;102503.81;;;23.11;37.43
4705;BME280;2366;51.332;6.610;2023-05-25T13:16:59;102511.81;;;23.12;37.16